createdAt,value
2023-04-11T00:04:40.261Z,6.18
2023-04-11T00:09:42.188Z,5.32
2023-04-11T00:14:48.802Z,5.50
2023-04-11T00:19:53.314Z,5.28
2023-04-11T00:24:55.152Z,5.13
2023-04-11T00:29:58.005Z,5.93
2023-04-11T00:34:59.937Z,5.97
2023-04-11T00:40:05.490Z,5.93
2023-04-11T00:45:07.913Z,6.05
2023-04-11T00:50:13.833Z,5.68
2023-04-11T00:55:16.407Z,5.35
2023-04-11T01:00:18.394Z,6.00
2023-04-11T01:05:20.804Z,6.15
2023-04-11T01:10:24.050Z,5.85
2023-04-11T01:15:25.992Z,6.30
2023-04-11T01:20:29.014Z,5.90
2023-04-11T01:25:30.946Z,6.18
2023-04-11T01:30:33.078Z,6.57
2023-04-11T01:35:35.057Z,5.90
2023-04-11T01:40:38.049Z,6.10
2023-04-11T01:45:40.761Z,6.15
2023-04-11T01:50:42.543Z,7.13
2023-04-11T01:55:44.426Z,7.30
2023-04-11T02:00:46.228Z,6.50
2023-04-11T02:05:48.242Z,7.75
2023-04-11T02:10:50.063Z,5.88
2023-04-11T02:15:51.870Z,7.10
2023-04-11T02:20:53.625Z,6.40
2023-04-11T02:25:55.649Z,7.10
2023-04-11T02:30:57.501Z,6.65
2023-04-11T02:35:59.326Z,6.63
2023-04-11T02:41:02.510Z,5.63
2023-04-11T02:46:12.559Z,6.22
2023-04-11T02:51:17.380Z,6.40
2023-04-11T02:56:20.080Z,6.45
2023-04-11T03:01:25.654Z,6.55
2023-04-11T03:06:29.810Z,7.00
2023-04-11T03:11:35.105Z,6.93
2023-04-11T03:16:39.586Z,6.93
2023-04-11T03:21:41.457Z,7.38
2023-04-11T03:26:44.559Z,7.13
2023-04-11T03:31:50.364Z,8.07
2023-04-11T03:36:53.042Z,7.13
2023-04-11T03:41:55.772Z,7.13
2023-04-11T03:46:58.364Z,6.80
2023-04-11T03:52:07.568Z,7.90
2023-04-11T03:57:10.629Z,7.50
2023-04-11T04:02:12.639Z,8.15
2023-04-11T04:07:24.616Z,7.03
2023-04-11T04:12:31.551Z,8.10
2023-04-11T04:17:44.567Z,8.70
2023-04-11T04:22:53.174Z,8.05
2023-04-11T04:28:02.461Z,8.55
2023-04-11T04:33:14.536Z,9.20
2023-04-11T04:38:21.279Z,10.13
2023-04-11T04:43:27.209Z,9.05
2023-04-11T04:48:33.538Z,9.07
2023-04-11T04:53:38.571Z,9.07
2023-04-11T04:58:41.719Z,10.73
2023-04-11T05:03:50.800Z,16.48
2023-04-11T05:09:02.017Z,26.58
2023-04-11T05:14:04.084Z,9.93
2023-04-11T05:19:06.776Z,11.07
2023-04-11T05:24:11.042Z,10.02
2023-04-11T05:29:14.843Z,10.35
2023-04-11T05:34:17.877Z,9.13
2023-04-11T05:39:23.239Z,9.88
2023-04-11T05:44:25.273Z,10.25
2023-04-11T05:49:27.079Z,16.45
2023-04-11T05:54:36.802Z,10.27
2023-04-11T05:59:38.552Z,11.43
2023-04-11T06:04:41.195Z,11.13
2023-04-11T06:09:44.327Z,12.50
2023-04-11T06:14:46.127Z,13.65
2023-04-11T06:19:48.974Z,13.93
2023-04-11T06:24:50.806Z,10.93
2023-04-11T06:29:52.572Z,10.35
2023-04-11T06:34:54.435Z,11.82
2023-04-11T06:39:56.163Z,10.48
2023-04-11T06:44:57.947Z,10.23
2023-04-11T06:49:59.798Z,11.82
2023-04-11T06:55:01.644Z,11.48
2023-04-11T07:00:06.941Z,9.63
2023-04-11T07:05:10.280Z,9.05
2023-04-11T07:10:12.616Z,15.00
2023-04-11T07:15:14.489Z,12.60
2023-04-11T07:20:16.426Z,11.70
2023-04-11T07:25:22.406Z,12.45
2023-04-11T07:30:24.312Z,11.00
2023-04-11T07:35:26.361Z,12.07
2023-04-11T07:40:28.881Z,10.98
2023-04-11T07:45:30.678Z,11.68
2023-04-11T07:50:32.482Z,11.15
2023-04-11T07:55:34.454Z,12.82
2023-04-11T08:00:36.402Z,10.85
2023-04-11T08:05:38.847Z,11.32
2023-04-11T08:10:40.719Z,10.63
2023-04-11T08:15:42.539Z,10.85
2023-04-11T08:20:44.313Z,10.85
2023-04-11T08:25:46.641Z,11.90
2023-04-11T08:30:48.665Z,5.85
2023-04-11T08:35:50.597Z,4.32
2023-04-11T08:40:52.942Z,4.18
2023-04-11T08:45:54.942Z,4.30
2023-04-11T08:50:56.686Z,6.03
2023-04-11T08:55:59.822Z,2.00
2023-04-11T09:01:28.700Z,1.85
2023-04-11T09:06:32.502Z,2.33
2023-04-11T09:11:54.287Z,2.67
2023-04-11T09:17:00.961Z,1.80
2023-04-11T09:22:06.179Z,2.10
2023-04-11T09:27:17.023Z,2.55
2023-04-11T09:32:35.619Z,1.20
2023-04-11T09:38:00.351Z,1.50
2023-04-11T09:43:03.757Z,1.50
2023-04-11T09:48:05.746Z,1.05
2023-04-11T09:53:07.677Z,1.10
2023-04-11T09:58:11.170Z,1.15
2023-04-11T10:03:13.043Z,0.90
2023-04-11T10:08:28.301Z,1.35
2023-04-11T10:13:41.767Z,1.17
2023-04-11T10:18:52.624Z,1.00
2023-04-11T10:24:17.222Z,0.98
2023-04-11T10:29:40.773Z,1.15
2023-04-11T10:34:54.834Z,1.33
2023-04-11T10:39:58.185Z,1.40
2023-04-11T10:45:19.259Z,1.13
2023-04-11T10:50:27.056Z,1.10
2023-04-11T10:55:30.297Z,1.38
2023-04-11T11:01:01.062Z,1.27
2023-04-11T11:06:10.030Z,1.15
2023-04-11T11:11:12.625Z,1.10
2023-04-11T11:16:17.833Z,1.30
2023-04-11T11:21:27.597Z,1.50
2023-04-11T11:26:37.746Z,1.50
2023-04-11T11:31:41.952Z,1.77
2023-04-11T11:36:46.572Z,1.80
2023-04-11T11:41:49.082Z,1.60
2023-04-11T11:47:17.473Z,2.00
2023-04-11T11:57:47.821Z,1.45
2023-04-11T12:02:52.582Z,1.58
2023-04-11T12:07:55.623Z,1.40
2023-04-11T12:12:57.511Z,1.10
2023-04-11T12:17:59.686Z,1.23
2023-04-11T12:23:01.631Z,1.40
2023-04-11T12:28:07.312Z,1.80
2023-04-11T12:33:09.144Z,1.55
2023-04-11T12:38:13.229Z,2.00
2023-04-11T12:43:17.005Z,1.50
2023-04-11T12:48:19.127Z,1.00
2023-04-11T12:53:21.064Z,1.45
2023-04-11T12:58:23.326Z,0.98
2023-04-11T13:03:25.253Z,1.15
2023-04-11T13:08:28.453Z,2.47
2023-04-11T13:13:30.375Z,2.20
2023-04-11T13:18:32.147Z,1.10
2023-04-11T13:23:35.355Z,1.00
2023-04-11T13:28:40.938Z,1.25
2023-04-11T13:33:44.696Z,1.50
2023-04-11T13:38:47.308Z,1.30
2023-04-11T13:43:49.940Z,0.90
2023-04-11T13:48:52.134Z,1.38
2023-04-11T13:53:53.948Z,1.08
2023-04-11T13:58:56.262Z,1.60
2023-04-11T14:03:58.401Z,1.27
2023-04-11T14:09:00.429Z,1.23
2023-04-11T14:14:02.210Z,1.35
2023-04-11T14:19:04.360Z,1.70
2023-04-11T14:24:06.562Z,1.13
2023-04-11T14:29:08.436Z,1.27
2023-04-11T14:34:11.479Z,1.10
2023-04-11T14:39:13.283Z,0.90
2023-04-11T14:44:16.535Z,0.68
2023-04-11T14:49:18.266Z,0.98
2023-04-11T14:54:19.991Z,0.75
2023-04-11T14:59:22.117Z,1.10
2023-04-11T15:04:23.991Z,0.80
2023-04-11T15:09:26.220Z,1.27
2023-04-11T15:14:31.025Z,1.17
2023-04-11T15:19:33.208Z,0.32
2023-04-11T15:24:34.951Z,0.80
2023-04-11T15:29:36.903Z,1.85
2023-04-11T15:34:40.219Z,1.23
2023-04-11T15:39:41.987Z,0.70
2023-04-11T15:44:47.603Z,0.47
2023-04-11T15:49:49.397Z,0.88
2023-04-11T15:54:51.194Z,0.60
2023-04-11T15:59:52.944Z,0.90
2023-04-11T16:04:55.770Z,1.02
2023-04-11T16:09:57.738Z,1.27
2023-04-11T16:14:59.534Z,1.10
2023-04-11T16:20:01.370Z,1.30
2023-04-11T16:25:06.885Z,0.60
2023-04-11T16:30:09.489Z,1.38
2023-04-11T16:35:11.404Z,0.52
2023-04-11T16:40:13.226Z,1.00
2023-04-11T16:45:15.598Z,1.13
2023-04-11T16:50:17.945Z,0.75
2023-04-11T16:55:19.706Z,1.10
2023-04-11T17:00:21.678Z,1.27
2023-04-11T17:05:26.661Z,1.10
2023-04-11T17:10:28.437Z,1.08
2023-04-11T17:15:30.642Z,1.08
2023-04-11T17:20:32.393Z,0.95
2023-04-11T17:25:34.243Z,0.82
2023-04-11T17:30:36.385Z,1.30
2023-04-11T17:35:38.314Z,1.13
2023-04-11T17:40:41.204Z,1.38
2023-04-11T17:45:43.545Z,1.20
2023-04-11T17:50:46.231Z,1.25
2023-04-11T17:55:48.763Z,1.48
2023-04-11T18:00:56.694Z,1.65
2023-04-11T18:05:59.704Z,1.15
2023-04-11T18:11:01.529Z,1.48
2023-04-11T18:16:03.484Z,1.30
2023-04-11T18:21:07.506Z,1.35
2023-04-11T18:26:09.882Z,1.30
2023-04-11T18:31:11.950Z,1.17
2023-04-11T18:36:13.929Z,1.35
2023-04-11T18:41:17.295Z,0.98
2023-04-11T18:46:20.051Z,2.00
2023-04-11T18:51:21.924Z,2.60
2023-04-11T18:56:23.785Z,2.03
2023-04-11T19:01:26.162Z,4.40
2023-04-11T19:06:28.373Z,19.08
2023-04-11T19:11:31.180Z,7.75
2023-04-11T19:16:33.606Z,2.40
2023-04-11T19:21:36.129Z,2.53
2023-04-11T19:26:38.066Z,7.20
2023-04-11T19:31:39.926Z,4.70
2023-04-11T19:36:42.624Z,1.77
2023-04-11T19:41:45.802Z,0.98
2023-04-11T19:46:47.616Z,3.03
2023-04-11T19:51:49.410Z,4.07
2023-04-11T19:56:54.255Z,2.35
2023-04-11T20:01:56.387Z,4.07
2023-04-11T20:07:00.705Z,1.58
2023-04-11T20:12:03.275Z,2.08
2023-04-11T20:17:06.367Z,1.77
2023-04-11T20:22:10.755Z,1.73
2023-04-11T20:27:12.650Z,1.02
2023-04-11T20:32:15.858Z,1.10
2023-04-11T20:37:19.502Z,12.05
2023-04-11T20:42:22.795Z,3.30
2023-04-11T20:47:24.781Z,3.35
2023-04-11T20:52:26.580Z,1.08
2023-04-11T20:57:31.495Z,42.85
2023-04-11T21:02:33.364Z,4.65
2023-04-11T21:07:39.459Z,1.30
2023-04-11T21:12:42.072Z,5.10
2023-04-11T21:17:45.594Z,2.17
2023-04-11T21:22:48.411Z,0.80
2023-04-11T21:27:50.266Z,1.45
2023-04-11T21:32:52.203Z,1.40
2023-04-11T21:37:54.150Z,1.50
2023-04-11T21:42:55.998Z,1.30
2023-04-11T21:47:57.840Z,1.13
2023-04-11T21:52:59.686Z,1.30
2023-04-11T21:58:01.434Z,1.17
2023-04-11T22:03:03.315Z,1.38
2023-04-11T22:08:13.659Z,1.05
2023-04-11T22:13:17.350Z,1.02
2023-04-11T22:18:26.220Z,1.20
2023-04-11T22:23:27.966Z,0.90
2023-04-11T22:28:29.814Z,1.20
2023-04-11T22:33:31.898Z,1.13
2023-04-11T22:38:35.130Z,1.10
2023-04-11T22:43:36.985Z,0.80
2023-04-11T22:48:38.788Z,1.20
2023-04-11T22:53:42.140Z,1.05
2023-04-11T22:58:46.031Z,1.30
2023-04-11T23:03:48.189Z,1.38
2023-04-11T23:08:50.004Z,1.20
2023-04-11T23:13:52.684Z,1.10
2023-04-11T23:18:55.371Z,1.50
2023-04-11T23:23:57.515Z,1.35
2023-04-11T23:29:01.984Z,1.35
2023-04-11T23:34:03.752Z,1.48
2023-04-11T23:39:05.618Z,1.60
2023-04-11T23:44:07.583Z,1.23
2023-04-11T23:49:09.362Z,1.20
2023-04-11T23:54:11.227Z,1.35
2023-04-11T23:59:13.038Z,1.33
